Last 24 Hours

Pinyon

10 Minute Data | America/Los_Angeles
as of 5/20/22 6:43 AM PDT
Date & Time Temp (°F) Dew Pt (°F) RH (%) Wind Spd (mph) Wind Dir (°) Wind Gust (mph) Wind Gst Dir (°) Daily Max Temp (°F) Daily Min Temp (°F)
5/20/22 - 0640 66.0 36.0 33 23.9 SW | 234 36.5 SW | 218 70.0 60.6
5/20/22 - 0630 65.6 37.2 35 25.8 WSW | 239 39.1 SW | 234 70.0 60.6
5/20/22 - 0620 65.4 37.2 35 26.6 WSW | 238 43.5 SW | 233 70.0 60.6
5/20/22 - 0610 65.4 37.0 35 27.7 WSW | 238 45.3 WSW | 245 70.0 60.6
5/20/22 - 0600 65.4 36.5 34 29.8 SW | 229 43.3 SSW | 212 70.0 60.6
5/20/22 - 0550 64.3 36.4 35 28.7 SW | 234 40.9 SW | 224 70.0 60.6
5/20/22 - 0540 64.3 36.2 35 29.9 SW | 234 44.1 SW | 234 70.0 60.6
5/20/22 - 0530 64.0 36.4 36 29.6 SW | 236 45.4 SW | 234 70.0 60.6
5/20/22 - 0520 63.7 36.5 36 30.5 SW | 236 43.9 SW | 228 70.0 60.6
5/20/22 - 0510 64.0 36.5 36 31.7 SW | 235 43.3 SW | 232 70.0 60.6
5/20/22 - 0500 63.4 36.6 37 31.4 SW | 232 41.8 SW | 231 70.0 60.6
5/20/22 - 0450 63.8 36.4 36 29.6 SW | 233 42.4 SW | 233 70.0 60.6
5/20/22 - 0440 63.5 36.5 37 31.2 SW | 234 42.0 SW | 231 70.0 60.6
5/20/22 - 0430 62.9 36.5 37 32.4 WSW | 237 43.3 WSW | 242 70.0 60.6
5/20/22 - 0420 61.9 36.9 39 34.2 SW | 235 45.5 WSW | 240 70.0 60.6
5/20/22 - 0410 60.9 37.2 41 33.9 WSW | 237 45.4 SW | 225 70.0 60.6
5/20/22 - 0400 61.1 37.0 41 34.1 WSW | 239 47.8 WSW | 242 70.0 61.0
5/20/22 - 0350 61.4 36.9 40 34.2 WSW | 239 45.7 WSW | 240 70.0 61.0
5/20/22 - 0340 61.9 36.9 39 35.8 SW | 236 47.8 WSW | 244 70.0 61.8
5/20/22 - 0330 62.1 36.9 39 36.8 SW | 236 47.6 WSW | 245 70.0 61.9
5/20/22 - 0320 62.3 37.2 39 34.2 SW | 233 46.3 SW | 225 70.0 62.1
5/20/22 - 0310 63.1 37.3 38 34.6 SW | 228 47.1 SW | 225 70.0 62.4
5/20/22 - 0300 63.8 37.4 37 32.8 SW | 232 44.6 SW | 230 70.0 63.2
5/20/22 - 0250 64.4 37.6 37 29.9 SW | 229 43.5 SW | 214 70.0 63.2
5/20/22 - 0240 65.5 37.6 36 28.5 SW | 232 39.2 SW | 230 70.0 63.2
5/20/22 - 0230 64.3 37.5 37 27.5 SW | 226 42.0 SW | 216 70.0 63.2
5/20/22 - 0220 63.8 37.8 38 27.6 SW | 228 41.6 WSW | 249 70.0 63.2
5/20/22 - 0210 64.0 37.7 38 28.9 SW | 231 39.8 SW | 222 70.0 63.4
5/20/22 - 0200 64.5 37.1 36 26.9 SW | 229 42.2 WSW | 238 70.0 63.4
5/20/22 - 0150 64.0 37.3 37 28.3 SW | 225 43.8 WSW | 239 70.0 63.4
5/20/22 - 0140 64.6 37.0 36 27.8 SW | 221 37.6 SW | 224 70.0 63.4
5/20/22 - 0130 63.8 37.2 37 28.3 SW | 230 40.0 SW | 224 70.0 63.4
5/20/22 - 0120 66.0 36.7 34 31.0 WSW | 238 46.7 WSW | 253 70.0 64.1
5/20/22 - 0110 67.4 35.8 31 31.0 WSW | 245 51.1 WSW | 245 70.0 64.1
5/20/22 - 0100 64.0 37.0 37 30.0 WSW | 240 46.1 SW | 232 82.1 63.2
5/20/22 - 0050 65.1 36.5 35 31.4 SW | 236 43.3 SW | 221 82.1 63.8
5/20/22 - 0040 65.5 36.4 34 32.6 SW | 229 53.0 SW | 221 82.1 64.2
5/20/22 - 0030 65.6 36.8 34 30.8 SW | 230 48.5 SW | 228 82.1 64.5
5/20/22 - 0020 67.0 36.6 33 27.6 SW | 228 45.6 SW | 229 82.1 64.5
5/20/22 - 0010 65.4 37.5 36 25.6 SW | 232 41.4 SW | 236 82.1 64.5
5/20/22 - 0000 65.3 37.7 36 25.8 SW | 219 41.0 WSW | 242 82.1 64.8
5/19/22 - 2350 65.0 38.3 37 22.8 SW | 225 37.8 SW | 215 82.1 64.8
5/19/22 - 2340 65.9 38.2 36 25.9 SW | 218 38.3 SSW | 207 82.1 65.2
5/19/22 - 2330 66.7 38.2 35 26.3 SW | 224 41.5 SW | 230 82.1 65.2
5/19/22 - 2320 66.6 38.5 36 29.0 SW | 217 38.0 SW | 231 82.1 65.2
5/19/22 - 2310 66.4 39.1 37 22.1 WSW | 238 38.0 SW | 224 82.1 65.2
5/19/22 - 2300 67.4 38.8 35 24.8 SW | 225 35.8 SSW | 210 82.1 65.4
5/19/22 - 2250 66.5 39.3 37 25.2 SW | 233 35.4 WSW | 237 82.1 65.4
5/19/22 - 2240 66.4 39.6 37 24.3 SW | 234 38.2 SW | 232 82.1 65.4
5/19/22 - 2230 67.6 38.4 34 24.4 SW | 224 40.2 SW | 230 82.1 65.8
5/19/22 - 2220 67.9 37.8 33 13.7 SW | 226 26.5 SSW | 205 82.1 65.8
5/19/22 - 2210 68.3 37.7 32 12.5 SW | 228 30.1 SW | 229 82.1 65.8
5/19/22 - 2200 68.0 37.9 33 18.2 WSW | 239 29.5 SW | 233 82.1 65.8
5/19/22 - 2150 66.4 39.4 37 23.6 SW | 231 38.1 SW | 231 82.1 65.8
5/19/22 - 2140 66.5 39.0 36 25.4 SW | 228 43.2 SW | 224 82.1 65.8
5/19/22 - 2130 66.3 38.7 36 25.9 SW | 225 35.2 SW | 218 82.1 65.8
5/19/22 - 2120 66.7 38.1 35 24.5 SW | 230 35.6 SW | 227 82.1 66.4
5/19/22 - 2110 66.8 37.6 34 20.9 SW | 226 34.0 SW | 225 82.1 66.7
5/19/22 - 2100 67.2 37.4 33 18.8 SW | 228 27.0 SW | 226 82.1 66.8
5/19/22 - 2050 68.2 34.9 29 19.9 SW | 218 29.0 SW | 217 82.1 67.7
5/19/22 - 2040 68.2 36.0 30 20.3 SW | 217 31.7 SSW | 211 82.1 68.0
5/19/22 - 2030 68.1 38.6 34 20.3 SW | 222 29.1 SW | 222 82.1 68.0
5/19/22 - 2020 68.6 38.0 32 20.6 SW | 223 30.2 SW | 226 82.1 68.1
5/19/22 - 2010 69.2 36.8 30 18.8 SW | 229 27.7 SW | 223 82.1 68.4
5/19/22 - 2000 69.7 37.5 31 20.0 SW | 233 33.8 WSW | 248 82.1 68.4
5/19/22 - 1950 69.7 38.7 32 21.4 SW | 230 30.0 WSW | 242 82.1 68.4
5/19/22 - 1940 70.2 38.3 31 21.4 SW | 232 29.9 SW | 221 82.1 68.4
5/19/22 - 1930 70.7 38.0 30 21.4 SW | 220 33.2 SSW | 207 82.1 68.4
5/19/22 - 1920 71.3 38.4 30 23.4 SW | 222 31.8 SW | 226 82.1 68.4
5/19/22 - 1910 72.0 38.4 29 22.2 SW | 221 31.5 SW | 234 82.1 68.4
5/19/22 - 1900 72.7 38.4 29 25.1 SW | 225 33.9 SW | 230 82.1 68.4
5/19/22 - 1850 73.3 39.8 30 26.6 SW | 224 36.0 SW | 225 82.1 68.4
5/19/22 - 1840 74.4 39.5 28 24.4 SW | 227 33.2 SSW | 205 82.1 68.4
5/19/22 - 1830 75.0 37.2 25 24.8 SW | 227 34.0 SW | 227 82.1 68.4
5/19/22 - 1820 75.9 36.6 24 23.5 SW | 231 30.6 SW | 233 82.1 68.4
5/19/22 - 1810 76.6 36.7 24 22.1 SW | 228 31.6 SW | 230 82.1 68.4
5/19/22 - 1800 76.8 36.7 23 23.4 SW | 231 33.3 SW | 223 82.1 68.4
5/19/22 - 1750 76.8 37.4 24 23.8 SW | 226 32.3 SW | 234 82.1 68.4
5/19/22 - 1740 77.3 37.6 24 24.8 SW | 226 34.3 SW | 221 82.1 68.4
5/19/22 - 1730 78.0 37.5 23 23.4 SW | 232 31.5 SW | 220 82.1 68.4
5/19/22 - 1720 78.1 37.4 23 22.9 SW | 233 32.5 SW | 230 82.1 68.4
5/19/22 - 1710 78.4 37.2 23 23.8 SW | 227 32.4 SW | 231 82.1 68.4
5/19/22 - 1700 78.6 38.3 24 22.8 SW | 226 31.4 W | 259 82.1 68.4
5/19/22 - 1650 79.6 39.6 24 19.7 WSW | 237 29.3 SW | 228 82.1 68.4
5/19/22 - 1640 79.8 40.1 24 20.6 WSW | 238 29.4 WSW | 253 82.1 68.4
5/19/22 - 1630 80.2 41.2 25 19.4 SW | 232 28.8 SW | 233 82.1 68.4
5/19/22 - 1620 81.1 40.9 24 17.8 SW | 232 27.5 SW | 223 82.1 68.4
5/19/22 - 1610 80.2 41.6 25 10.8 SW | 236 20.6 W | 261 82.0 68.4
5/19/22 - 1600 78.2 45.8 32 7.9 NNE | 18 25.6 NNE | 24 82.0 68.4
5/19/22 - 1550 78.0 46.1 32 5.4 ENE | 68 14.5 NE | 45 82.0 68.4
5/19/22 - 1540 78.6 46.3 32 6.6 NE | 49 14.0 ENE | 58 82.0 68.4
5/19/22 - 1530 79.1 45.1 30 5.9 N | 360 14.0 WSW | 251 82.0 68.4
5/19/22 - 1520 77.8 46.1 33 7.2 NNE | 21 13.1 NNE | 32 78.5 68.4
5/19/22 - 1510 77.7 46.0 33 8.6 NNE | 23 16.3 NNE | 33 78.5 68.4
5/19/22 - 1500 77.4 46.1 33 10.4 NE | 34 17.2 NE | 39 78.5 68.4
5/19/22 - 1450 77.1 45.7 33 8.2 NE | 37 14.8 NE | 44 78.5 68.4
5/19/22 - 1440 77.3 44.6 31 7.5 NE | 39 12.7 NE | 52 78.5 68.4
5/19/22 - 1430 76.4 44.4 32 8.6 NE | 46 12.9 NE | 40 78.5 68.4
5/19/22 - 1420 76.4 44.9 33 8.0 NE | 48 14.1 ENE | 63 78.5 68.4
5/19/22 - 1410 76.9 43.9 31 8.6 NE | 44 13.7 NE | 39 78.5 68.4
5/19/22 - 1400 76.5 42.1 29 9.4 NE | 34 18.0 NE | 49 78.5 68.4
5/19/22 - 1350 76.2 43.3 31 10.2 NE | 38 15.4 NE | 47 78.5 68.4
5/19/22 - 1340 77.1 41.4 28 8.6 NE | 38 14.2 NNE | 18 78.5 68.4
5/19/22 - 1330 77.1 42.1 29 9.0 NNE | 28 13.5 NE | 43 78.5 68.4
5/19/22 - 1320 77.4 41.6 28 6.9 NNE | 31 13.2 NNE | 24 78.5 68.4
5/19/22 - 1310 76.7 40.3 27 6.1 NNE | 30 12.0 NNE | 31 77.9 68.4
5/19/22 - 1300 75.6 44.0 32 7.5 NE | 36 13.3 NE | 54 77.9 68.4
5/19/22 - 1250 75.8 46.0 35 9.6 NE | 45 14.4 NE | 36 77.9 68.4
5/19/22 - 1240 76.7 44.4 32 8.7 NE | 43 13.8 ENE | 66 77.9 68.4
5/19/22 - 1230 76.4 43.8 31 7.2 NE | 43 11.8 NE | 56 77.9 68.4
5/19/22 - 1220 76.3 42.6 30 8.5 NE | 47 14.2 NE | 35 77.6 68.4
5/19/22 - 1210 77.0 41.8 28 7.9 NE | 38 13.3 NNE | 27 77.6 68.4
5/19/22 - 1200 76.5 38.6 26 7.7 NE | 36 12.5 NNE | 30 77.6 68.4
5/19/22 - 1150 76.4 40.0 27 6.7 NNE | 29 11.3 NNE | 19 77.6 68.4
5/19/22 - 1140 76.6 41.0 28 7.1 NE | 34 12.6 NE | 38 77.6 68.4
5/19/22 - 1130 76.8 40.2 27 7.4 NNE | 21 11.8 NE | 43 77.6 68.4
5/19/22 - 1120 77.3 36.7 23 6.5 NE | 34 13.7 NE | 40 77.6 68.4
5/19/22 - 1110 76.3 37.3 24 7.1 NE | 40 11.8 NE | 45 76.8 68.4
5/19/22 - 1100 76.0 38.7 26 7.7 NNE | 33 11.2 NE | 46 76.8 68.4
5/19/22 - 1050 76.1 38.2 25 7.1 NE | 43 13.2 NE | 44 76.8 68.4
5/19/22 - 1040 75.8 39.2 27 8.0 NE | 38 12.8 NNE | 32 76.8 68.4
5/19/22 - 1030 76.2 36.5 24 7.6 NE | 41 11.9 NE | 40 76.8 68.4
5/19/22 - 1020 75.8 36.7 24 7.0 NE | 48 11.9 NNE | 31 76.8 68.4
5/19/22 - 1010 75.8 35.9 23 6.2 NE | 47 12.2 NNE | 29 76.8 68.4
5/19/22 - 1000 75.7 34.1 22 7.2 NE | 45 11.0 NE | 44 76.8 68.4
5/19/22 - 0950 76.1 31.3 19 6.9 NE | 49 11.3 NE | 48 76.8 68.4
5/19/22 - 0940 75.7 34.6 22 6.0 NE | 44 10.0 NE | 43 76.7 68.4
5/19/22 - 0930 75.9 32.8 21 7.2 NE | 40 12.6 NNE | 33 76.7 68.4
5/19/22 - 0920 76.2 31.4 19 5.9 NE | 54 10.6 NE | 46 76.7 68.4
5/19/22 - 0910 76.1 33.0 21 4.5 ENE | 61 8.1 NE | 47 76.7 68.4
5/19/22 - 0900 75.5 34.2 22 4.3 NE | 43 7.3 NE | 36 76.7 68.4
5/19/22 - 0850 75.2 35.1 23 4.4 NE | 52 7.6 NE | 39 76.7 68.4
5/19/22 - 0840 74.9 38.1 26 4.1 NE | 39 7.2 NE | 46 76.7 68.4
5/19/22 - 0830 75.6 36.2 24 4.2 NE | 53 8.3 ENE | 69 76.7 68.4
5/19/22 - 0820 75.8 33.3 21 3.6 ENE | 75 7.5 NE | 52 76.7 68.4
5/19/22 - 0810 75.1 33.6 22 4.2 ENE | 57 7.4 NE | 56 75.5 68.4
5/19/22 - 0800 74.8 33.2 22 4.1 ENE | 71 6.7 E | 88 75.2 68.4
5/19/22 - 0750 74.8 33.4 22 4.0 ENE | 60 6.7 ENE | 59 75.2 68.4
5/19/22 - 0740 74.1 33.6 23 2.2 E | 90 4.6 ENE | 75 75.2 68.4
5/19/22 - 0730 71.7 35.6 27 0.6 S | 190 2.6 SE | 145 72.8 68.4
5/19/22 - 0720 70.1 35.6 28 1.0 SSW | 200 2.0 SSW | 194 71.9 68.4
5/19/22 - 0710 69.2 34.6 28 2.2 SSW | 205 3.7 SSW | 211 71.9 68.4
5/19/22 - 0700 68.9 34.3 28 3.0 SW | 230 3.8 WSW | 244 71.9 68.4
5/19/22 - 0650 68.9 33.9 27 3.6 WSW | 247 3.9 WSW | 248 71.9 68.4
5/19/22 - 0640 68.7 34.0 28 4.1 W | 259 5.3 W | 266 71.9 68.4
Max 81.1 46.3 41 36.8 - 53.0 - 82.1 68.4
Avg 71.1 38.2 31 18.2 - 27.5 - - -
Min 60.9 31.3 19 0.6 - 2.0 - 70.0 60.6